Terminal Aerodrome Forecast
Issued by NWS

Home | Current Version | Previous Version | Text Only | Print | Product List | Glossary Off
Versions: 1 2 3 4 5 6 7 8 9 10 11 12 13 14 15 16 17 18 19 20

000
FTUS43 KABR 280357 AAB
TAFMBG
TAF AMD
KMBG 280357Z 2804/2824 28019G31KT 1 1/2SM +TSRA SCT026 BKN045CB
      OVC060
     FM280500 18011KT P6SM VCTS OVC050CB
     FM280900 30025G35KT P6SM BKN200=

USA.gov is the U.S. government's official web portal to all federal, state and local government web resources and services.